Time;durP1;ratioP1;P1;durP2;ratioP2;P2;SDS_P1;SDS_P2;PMS_P1;PMS_P2;Temp;Humidity;BMP_temperature;BMP_pressure;BME280_temperature;BME280_humidity;BME280_pressure;Samples;Min_cycle;Max_cycle;Signal;HPM_P1;HPM_P2
2022/08/15 00:00:21;;;;;;;11.50;10.40;;;23.20;59.70;;;;;;5092721;28;20565;-58
2022/08/15 00:02:49;;;;;;;10.33;9.43;;;23.20;59.90;;;;;;5094279;28;20453;-57
2022/08/15 00:05:22;;;;;;;9.73;8.83;;;23.10;60.10;;;;;;5092714;28;20891;-60
2022/08/15 00:07:49;;;;;;;10.50;9.47;;;23.00;60.30;;;;;;5093586;28;20463;-58
2022/08/15 00:10:18;;;;;;;13.20;9.63;;;23.00;60.60;;;;;;5092834;28;20553;-59
2022/08/15 00:12:46;;;;;;;12.63;9.77;;;23.00;60.90;;;;;;5094082;28;20465;-57
2022/08/15 00:15:16;;;;;;;11.03;10.00;;;22.90;61.00;;;;;;5091238;28;20494;-58
2022/08/15 00:17:44;;;;;;;10.10;9.30;;;22.90;61.20;;;;;;5102673;28;20505;-58
2022/08/15 00:20:13;;;;;;;10.47;9.40;;;22.90;61.40;;;;;;5095641;28;20538;-58
2022/08/15 00:22:49;;;;;;;9.53;8.63;;;22.90;61.70;;;;;;5092773;28;20564;-58
2022/08/15 00:25:17;;;;;;;11.07;9.80;;;22.80;61.80;;;;;;5100110;28;21012;-58
2022/08/15 00:27:44;;;;;;;10.63;9.70;;;22.80;62.10;;;;;;5106897;28;20486;-58
2022/08/15 00:30:13;;;;;;;10.07;9.20;;;22.80;62.30;;;;;;5106582;28;20502;-60
2022/08/15 00:32:41;;;;;;;10.73;9.70;;;22.70;62.40;;;;;;5107496;28;20517;-58
2022/08/15 00:37:55;;;;;;;10.27;9.17;;;22.70;62.90;;;;;;5104840;28;20520;-58
2022/08/15 00:40:23;;;;;;;10.90;9.97;;;22.70;63.10;;;;;;5111977;28;20460;-58
2022/08/15 00:42:50;;;;;;;10.00;9.00;;;22.70;63.40;;;;;;5104570;28;20459;-58
2022/08/15 00:45:19;;;;;;;9.80;8.97;;;22.60;63.50;;;;;;5099359;28;20459;-58
2022/08/15 00:48:41;;;;;;;10.73;9.60;;;22.60;63.70;;;;;;5096966;28;20614;-58
2022/08/15 00:50:35;;;;;;;10.63;9.60;;;22.60;64.00;;;;;;5078612;28;20464;-58
2022/08/15 00:53:08;;;;;;;10.80;9.77;;;22.60;64.20;;;;;;5082485;28;20870;-58
2022/08/15 00:55:40;;;;;;;10.93;9.00;;;22.50;64.20;;;;;;5096393;28;20595;-59
2022/08/15 00:58:07;;;;;;;11.40;10.30;;;22.50;64.50;;;;;;5097067;28;20467;-58
2022/08/15 01:00:37;;;;;;;10.90;9.90;;;22.50;64.80;;;;;;5095998;28;20559;-59
2022/08/15 01:03:10;;;;;;;10.80;9.80;;;22.40;65.00;;;;;;5099963;28;20468;-58
2022/08/15 01:05:39;;;;;;;10.23;9.33;;;22.40;65.20;;;;;;5096379;28;20535;-58
2022/08/15 01:08:07;;;;;;;10.23;9.33;;;22.30;65.50;;;;;;5096234;28;20549;-58
2022/08/15 01:10:35;;;;;;;10.70;9.47;;;22.30;65.80;;;;;;5096285;28;20633;-58
2022/08/15 01:13:02;;;;;;;10.10;9.20;;;22.30;66.00;;;;;;5097043;28;20470;-58
2022/08/15 01:15:31;;;;;;;10.00;9.17;;;22.20;66.30;;;;;;5095952;28;20847;-57
2022/08/15 01:17:58;;;;;;;9.77;8.87;;;22.20;66.60;;;;;;5096890;28;20485;-57
2022/08/15 01:20:29;;;;;;;10.07;9.10;;;22.20;66.90;;;;;;5096573;28;20460;-57
2022/08/15 01:23:11;;;;;;;10.17;9.27;;;22.20;67.10;;;;;;5097000;28;20476;-58
2022/08/15 01:25:43;;;;;;;10.90;9.90;;;22.10;67.40;;;;;;5111319;28;20486;-57
2022/08/15 01:28:15;;;;;;;10.10;9.10;;;22.10;67.80;;;;;;5117044;28;20549;-59
2022/08/15 01:30:46;;;;;;;10.13;9.20;;;22.10;68.00;;;;;;5097517;28;21012;-59
2022/08/15 01:33:13;;;;;;;10.30;9.30;;;22.10;68.30;;;;;;5099667;28;20444;-58
2022/08/15 01:35:41;;;;;;;11.27;10.20;;;22.10;68.50;;;;;;5096245;28;20484;-57
2022/08/15 01:38:22;;;;;;;10.80;9.80;;;22.00;68.70;;;;;;5095571;28;20469;-57
2022/08/15 01:40:59;;;;;;;9.83;9.03;;;22.00;69.20;;;;;;5094842;28;20493;-58
2022/08/15 01:43:31;;;;;;;10.77;9.80;;;22.00;69.60;;;;;;5095301;28;20467;-57
2022/08/15 01:46:03;;;;;;;10.40;9.43;;;22.00;69.90;;;;;;5095238;28;20458;-57
2022/08/15 01:48:35;;;;;;;9.90;9.10;;;21.90;70.20;;;;;;5095455;28;20537;-57
2022/08/15 01:51:06;;;;;;;11.60;9.47;;;21.90;70.70;;;;;;5094974;28;20510;-57
2022/08/15 01:53:39;;;;;;;13.73;10.80;;;21.80;71.10;;;;;;5094896;28;20459;-62
2022/08/15 01:56:11;;;;;;;10.63;9.43;;;21.80;71.70;;;;;;5096378;28;20555;-58
2022/08/15 01:58:43;;;;;;;9.37;8.57;;;21.70;72.10;;;;;;5095440;28;20509;-62
2022/08/15 02:01:19;;;;;;;10.43;9.43;;;21.70;72.60;;;;;;5082714;28;20495;-58
2022/08/15 02:03:49;;;;;;;10.63;9.53;;;21.70;73.10;;;;;;5095015;28;20487;-58
2022/08/15 02:06:20;;;;;;;10.10;9.20;;;21.60;73.50;;;;;;5094977;28;20493;-58
2022/08/15 02:08:48;;;;;;;10.27;9.37;;;21.60;73.90;;;;;;5094563;28;20992;-59
2022/08/15 02:11:20;;;;;;;10.93;10.03;;;21.60;74.40;;;;;;5095308;28;20481;-57
2022/08/15 02:13:50;;;;;;;9.80;8.90;;;21.60;74.60;;;;;;5095027;28;20462;-58
2022/08/15 02:16:18;;;;;;;13.13;9.70;;;21.60;75.00;;;;;;5083682;28;20569;-57
2022/08/15 02:18:45;;;;;;;11.37;10.27;;;21.50;75.20;;;;;;5094583;28;20541;-58
2022/08/15 02:21:12;;;;;;;11.10;10.10;;;21.50;75.70;;;;;;5093418;28;20547;-58
2022/08/15 02:23:39;;;;;;;13.23;10.63;;;21.50;76.10;;;;;;5094370;28;20509;-57
2022/08/15 02:26:09;;;;;;;10.00;9.10;;;21.50;76.50;;;;;;5095557;28;20484;-56
2022/08/15 02:28:41;;;;;;;10.67;9.57;;;21.50;76.80;;;;;;5094310;28;20479;-57
2022/08/15 02:31:13;;;;;;;10.53;9.53;;;21.50;77.10;;;;;;5096013;28;20900;-57
2022/08/15 02:33:40;;;;;;;10.70;9.70;;;21.40;77.50;;;;;;5098299;28;20454;-57
2022/08/15 02:36:08;;;;;;;11.07;10.07;;;21.40;77.60;;;;;;5094451;28;20565;-58
2022/08/15 02:38:35;;;;;;;9.77;8.87;;;21.40;77.90;;;;;;5097320;28;20501;-59
2022/08/15 02:41:02;;;;;;;10.27;9.37;;;21.40;78.10;;;;;;5093025;28;20466;-58
2022/08/15 02:43:30;;;;;;;10.40;9.40;;;21.40;78.60;;;;;;5108878;28;20438;-60
2022/08/15 02:46:00;;;;;;;10.50;9.50;;;21.40;78.90;;;;;;5107148;28;20501;-57
2022/08/15 02:48:27;;;;;;;10.50;9.50;;;21.40;79.20;;;;;;5093874;28;20560;-58
2022/08/15 02:50:54;;;;;;;11.03;9.87;;;21.40;79.40;;;;;;5094069;28;20537;-58
2022/08/15 02:53:22;;;;;;;11.37;10.30;;;21.40;79.50;;;;;;5079431;28;20470;-58
2022/08/15 02:55:49;;;;;;;11.47;10.37;;;21.40;79.60;;;;;;5089650;28;20558;-58
2022/08/15 02:58:17;;;;;;;11.30;10.30;;;21.40;79.90;;;;;;5094047;28;20515;-58
2022/08/15 03:00:46;;;;;;;11.47;10.37;;;21.40;79.90;;;;;;5093227;28;20467;-56
2022/08/15 03:03:16;;;;;;;10.77;9.73;;;21.40;80.10;;;;;;5094618;28;20463;-58
2022/08/15 03:05:48;;;;;;;10.97;10.00;;;21.40;80.20;;;;;;5094456;28;20490;-58
2022/08/15 03:08:16;;;;;;;10.53;9.63;;;21.40;80.40;;;;;;5094349;28;20498;-58
2022/08/15 03:10:43;;;;;;;11.70;10.53;;;21.40;80.50;;;;;;5093428;28;20546;-58
2022/08/15 03:13:13;;;;;;;12.00;10.80;;;21.40;80.60;;;;;;5093992;28;20962;-56
2022/08/15 03:15:43;;;;;;;11.67;10.67;;;21.30;80.60;;;;;;5094011;28;20605;-59
2022/08/15 03:18:11;;;;;;;11.53;10.40;;;21.30;80.70;;;;;;5094302;28;20990;-58
2022/08/15 03:20:40;;;;;;;11.13;10.13;;;21.30;80.80;;;;;;5093158;28;21007;-57
2022/08/15 03:23:09;;;;;;;11.67;10.57;;;21.30;80.90;;;;;;5093647;28;20912;-58
2022/08/15 03:25:40;;;;;;;12.30;11.10;;;21.30;81.00;;;;;;5094978;28;20966;-59
2022/08/15 03:28:08;;;;;;;11.60;10.50;;;21.30;81.10;;;;;;5093724;28;20487;-55
2022/08/15 03:30:36;;;;;;;13.40;10.50;;;21.30;81.20;;;;;;5094005;28;20455;-57
2022/08/15 03:33:05;;;;;;;13.10;10.13;;;21.30;81.20;;;;;;5094757;28;20503;-58
2022/08/15 03:35:37;;;;;;;14.70;12.20;;;21.30;81.20;;;;;;5096492;28;20479;-58
2022/08/15 03:38:06;;;;;;;12.07;10.90;;;21.40;81.20;;;;;;5077452;28;20561;-58
2022/08/15 03:40:34;;;;;;;14.43;11.27;;;21.40;81.20;;;;;;5094604;28;20494;-57
2022/08/15 03:43:05;;;;;;;11.90;10.90;;;21.40;81.10;;;;;;5094164;28;20475;-58
2022/08/15 03:45:33;;;;;;;11.80;10.70;;;21.40;81.20;;;;;;5093540;28;20451;-58
2022/08/15 03:48:01;;;;;;;11.50;10.40;;;21.40;81.20;;;;;;5094282;28;20486;-58
2022/08/15 03:50:28;;;;;;;12.00;10.13;;;21.40;81.10;;;;;;5094303;28;20477;-57
2022/08/15 03:52:59;;;;;;;11.80;10.30;;;21.40;81.10;;;;;;5093951;28;20538;-58
2022/08/15 03:55:31;;;;;;;12.10;10.90;;;21.50;81.30;;;;;;5095066;28;20470;-58
2022/08/15 03:57:58;;;;;;;13.33;12.00;;;21.50;81.40;;;;;;5093170;28;22311;-57
2022/08/15 04:00:30;;;;;;;14.00;10.83;;;21.50;81.40;;;;;;5094083;28;20486;-59
2022/08/15 04:03:06;;;;;;;12.03;10.90;;;21.40;81.50;;;;;;5098505;28;20456;-57
2022/08/15 04:05:34;;;;;;;11.70;10.43;;;21.40;81.60;;;;;;5104983;28;20485;-57
2022/08/15 04:10:12;;;;;;;12.73;11.37;;;21.40;81.20;;;;;;5111717;27;20569;-57
2022/08/15 04:12:41;;;;;;;12.60;11.27;;;21.40;81.60;;;;;;5106747;28;20454;-56
2022/08/15 04:15:13;;;;;;;12.60;11.60;;;21.50;81.60;;;;;;5101565;28;20459;-57
2022/08/15 04:17:42;;;;;;;12.97;11.73;;;21.50;81.60;;;;;;5098908;28;20515;-56
2022/08/15 04:20:11;;;;;;;13.50;12.20;;;21.50;81.40;;;;;;5086674;28;20460;-56
2022/08/15 04:22:42;;;;;;;12.87;11.50;;;21.50;81.40;;;;;;5094304;28;20494;-57
2022/08/15 04:25:14;;;;;;;12.30;10.63;;;21.60;81.90;;;;;;5080773;28;20460;-54
2022/08/15 04:27:42;;;;;;;15.53;11.80;;;21.60;81.00;;;;;;5081103;28;20927;-56
2022/08/15 04:30:11;;;;;;;13.00;10.60;;;21.70;80.90;;;;;;5091277;28;20450;-58
2022/08/15 04:32:39;;;;;;;14.10;12.17;;;21.80;80.60;;;;;;5078647;28;20548;-56
2022/08/15 04:35:08;;;;;;;12.80;10.33;;;22.00;80.00;;;;;;5091104;28;20905;-56
2022/08/15 04:37:37;;;;;;;11.60;10.50;;;22.10;79.40;;;;;;5088184;28;20480;-59
2022/08/15 04:40:05;;;;;;;13.73;11.00;;;22.30;78.80;;;;;;5072301;28;20492;-56
2022/08/15 04:42:35;;;;;;;11.20;10.00;;;22.40;77.90;;;;;;5081888;28;20498;-56
2022/08/15 04:45:02;;;;;;;12.03;10.17;;;22.40;77.40;;;;;;5069800;28;21059;-55
2022/08/15 04:47:29;;;;;;;11.13;10.20;;;22.40;77.00;;;;;;5088861;28;20857;-55
2022/08/15 04:49:57;;;;;;;11.93;10.83;;;22.30;76.80;;;;;;5088487;28;20480;-55
2022/08/15 04:52:24;;;;;;;12.43;10.87;;;22.30;76.80;;;;;;5089016;28;20546;-56
2022/08/15 04:54:51;;;;;;;11.13;10.03;;;22.20;76.80;;;;;;5083456;28;20489;-56
2022/08/15 04:57:18;;;;;;;11.70;9.97;;;22.10;76.70;;;;;;5075134;28;20484;-56
2022/08/15 04:59:47;;;;;;;10.07;9.03;;;22.10;76.90;;;;;;5088392;28;20533;-57
2022/08/15 05:02:15;;;;;;;13.00;11.00;;;22.10;77.00;;;;;;5072510;28;20561;-56
2022/08/15 05:04:42;;;;;;;11.43;10.30;;;22.10;76.90;;;;;;5068902;28;20600;-56
2022/08/15 05:07:09;;;;;;;11.70;9.57;;;22.10;76.80;;;;;;5076312;28;20561;-56
2022/08/15 05:09:36;;;;;;;11.90;10.50;;;22.10;76.70;;;;;;5077883;28;20482;-57
2022/08/15 05:12:04;;;;;;;11.37;10.20;;;22.10;76.50;;;;;;5078547;28;20465;-56
2022/08/15 05:14:31;;;;;;;10.93;10.03;;;22.10;77.10;;;;;;5087573;28;20492;-56
2022/08/15 05:17:00;;;;;;;12.13;10.43;;;22.20;76.30;;;;;;5088784;28;20569;-55
2022/08/15 05:19:27;;;;;;;10.77;9.67;;;22.20;76.00;;;;;;5098993;28;20463;-55
2022/08/15 05:21:55;;;;;;;11.77;10.67;;;22.20;75.90;;;;;;5083195;28;20506;-57
2022/08/15 05:24:23;;;;;;;11.37;9.60;;;22.20;75.90;;;;;;5068495;28;20466;-57
2022/08/15 05:26:50;;;;;;;13.60;11.77;;;22.20;75.80;;;;;;5064468;28;20994;-55
2022/08/15 05:29:17;;;;;;;10.70;9.80;;;22.20;75.70;;;;;;5066791;28;20573;-56
2022/08/15 05:31:44;;;;;;;12.03;10.93;;;22.30;75.60;;;;;;5070811;28;20535;-57
2022/08/15 05:34:16;;;;;;;11.20;10.20;;;22.30;75.50;;;;;;5074287;28;20469;-57
2022/08/15 05:36:44;;;;;;;12.37;10.40;;;22.20;75.40;;;;;;5072566;28;20482;-55
2022/08/15 05:39:19;;;;;;;11.63;10.50;;;22.30;75.40;;;;;;5064500;28;20443;-55
2022/08/15 05:41:56;;;;;;;10.93;9.97;;;22.30;75.30;;;;;;5055604;28;20518;-55
2022/08/15 05:44:29;;;;;;;10.43;9.47;;;22.40;75.20;;;;;;5055087;28;20841;-55
2022/08/15 05:47:04;;;;;;;11.37;10.27;;;22.40;75.00;;;;;;5055134;28;20549;-56
2022/08/15 05:49:44;;;;;;;11.00;9.33;;;22.40;74.90;;;;;;5055414;28;20975;-56
2022/08/15 05:52:25;;;;;;;11.30;9.90;;;22.40;74.70;;;;;;5056585;28;20884;-55
2022/08/15 05:55:04;;;;;;;12.00;9.87;;;22.40;74.50;;;;;;5061827;28;20517;-55
2022/08/15 05:57:37;;;;;;;9.73;8.83;;;22.50;74.30;;;;;;5075054;28;20463;-56
2022/08/15 06:00:09;;;;;;;10.70;9.70;;;22.50;74.10;;;;;;5074979;28;20427;-56
2022/08/15 06:02:40;;;;;;;10.10;9.20;;;22.60;73.80;;;;;;5075538;28;20435;-56
2022/08/15 06:05:14;;;;;;;10.03;9.03;;;22.70;73.60;;;;;;5075221;28;20435;-55
2022/08/15 06:07:46;;;;;;;10.50;9.63;;;22.70;73.40;;;;;;5074112;28;20505;-55
2022/08/15 06:10:25;;;;;;;11.70;9.57;;;22.70;73.00;;;;;;5075073;28;20511;-55
2022/08/15 06:13:00;;;;;;;12.33;9.50;;;22.90;73.00;;;;;;5075360;28;20436;-55
2022/08/15 06:15:35;;;;;;;9.87;8.87;;;22.90;72.70;;;;;;5075777;28;20488;-55
2022/08/15 06:18:09;;;;;;;10.80;9.30;;;23.00;72.40;;;;;;5075284;28;20549;-55
2022/08/15 06:20:46;;;;;;;10.83;9.80;;;23.00;72.20;;;;;;5074898;28;20808;-55
2022/08/15 06:23:21;;;;;;;10.03;9.23;;;23.10;72.00;;;;;;5075325;28;20422;-55
2022/08/15 06:26:00;;;;;;;11.27;10.17;;;23.10;71.80;;;;;;5073112;28;20455;-55
2022/08/15 06:28:45;;;;;;;10.60;8.80;;;23.20;71.50;;;;;;5063229;28;20543;-56
2022/08/15 06:31:19;;;;;;;11.27;9.40;;;23.20;71.20;;;;;;5054592;28;20466;-57
2022/08/15 06:33:56;;;;;;;11.03;9.70;;;23.20;71.00;;;;;;5058157;28;20462;-56
2022/08/15 06:36:31;;;;;;;14.60;9.73;;;23.30;70.90;;;;;;5055499;28;20459;-57
2022/08/15 06:39:05;;;;;;;9.47;8.60;;;23.30;70.80;;;;;;5072448;28;20462;-56
2022/08/15 06:41:38;;;;;;;9.47;8.63;;;23.30;70.50;;;;;;5076236;28;20438;-55
2022/08/15 06:44:06;;;;;;;10.60;9.60;;;23.40;70.30;;;;;;5077341;28;20520;-56
2022/08/15 06:46:34;;;;;;;10.40;8.97;;;23.40;70.00;;;;;;5058127;28;20447;-55
2022/08/15 06:49:05;;;;;;;9.87;8.93;;;23.50;69.90;;;;;;5057922;28;21051;-61
2022/08/15 06:51:35;;;;;;;10.70;9.70;;;23.50;69.60;;;;;;5060018;28;20490;-55
2022/08/15 06:54:03;;;;;;;10.70;9.80;;;23.60;69.30;;;;;;5058367;28;20480;-56
2022/08/15 06:56:38;;;;;;;10.10;9.20;;;23.70;69.00;;;;;;5057185;28;20444;-54
2022/08/15 06:59:14;;;;;;;11.73;9.77;;;23.80;68.60;;;;;;5055498;28;20428;-56
2022/08/15 07:01:52;;;;;;;9.50;8.43;;;23.90;68.30;;;;;;5054187;28;20805;-56
2022/08/15 07:04:31;;;;;;;10.50;9.40;;;24.00;68.00;;;;;;5054280;28;20441;-55
2022/08/15 07:07:05;;;;;;;9.47;8.60;;;24.10;67.70;;;;;;5054006;28;20461;-56
2022/08/15 07:09:41;;;;;;;11.33;9.73;;;24.20;67.30;;;;;;5053755;28;20488;-57
2022/08/15 07:12:18;;;;;;;10.60;8.97;;;24.30;67.00;;;;;;5055048;28;20448;-55
2022/08/15 07:14:55;;;;;;;14.23;9.60;;;24.30;66.60;;;;;;5054244;28;20464;-56
2022/08/15 07:17:28;;;;;;;16.20;10.13;;;24.40;66.60;;;;;;5056865;28;20476;-56
2022/08/15 07:19:56;;;;;;;12.37;10.00;;;24.50;67.00;;;;;;5059639;28;20492;-57
2022/08/15 07:22:25;;;;;;;9.90;8.80;;;24.50;67.40;;;;;;5057130;28;20452;-56
2022/08/15 07:24:55;;;;;;;11.47;10.30;;;24.60;67.40;;;;;;5056270;28;20448;-56
2022/08/15 07:27:29;;;;;;;10.60;9.50;;;24.70;67.10;;;;;;5058980;28;20499;-56
2022/08/15 07:30:04;;;;;;;9.63;8.67;;;24.70;66.60;;;;;;5058964;28;20472;-55
2022/08/15 07:32:50;;;;;;;10.33;9.37;;;24.80;66.30;;;;;;5058960;28;20872;-56
2022/08/15 07:35:23;;;;;;;10.90;9.70;;;24.90;65.70;;;;;;5059481;28;20433;-57
2022/08/15 07:37:59;;;;;;;10.10;9.10;;;25.00;65.40;;;;;;5057576;28;20466;-55
2022/08/15 07:40:29;;;;;;;10.70;9.70;;;25.10;65.00;;;;;;5055291;28;20423;-57
2022/08/15 07:42:58;;;;;;;10.90;9.90;;;25.10;64.60;;;;;;5053752;28;20447;-55
2022/08/15 07:45:31;;;;;;;11.63;9.67;;;25.20;64.30;;;;;;5053983;28;20445;-56
2022/08/15 07:48:01;;;;;;;11.60;9.70;;;25.30;63.90;;;;;;5054867;28;20471;-58
2022/08/15 07:50:35;;;;;;;11.17;10.00;;;25.50;63.60;;;;;;5054191;28;21049;-55
2022/08/15 07:53:12;;;;;;;10.00;8.97;;;25.60;62.90;;;;;;5056014;28;20878;-56
2022/08/15 07:55:40;;;;;;;12.23;10.87;;;25.80;62.20;;;;;;5055381;28;20456;-56
2022/08/15 07:58:18;;;;;;;11.10;10.00;;;26.00;61.40;;;;;;5052677;28;20982;-55
2022/08/15 08:00:53;;;;;;;15.03;9.90;;;26.30;60.70;;;;;;5053169;28;20462;-56
2022/08/15 08:03:27;;;;;;;10.53;9.63;;;26.40;60.00;;;;;;5052615;28;20430;-55
2022/08/15 08:06:01;;;;;;;12.60;10.07;;;26.50;59.60;;;;;;5052952;28;20844;-55
2022/08/15 08:08:37;;;;;;;10.97;9.90;;;26.80;59.20;;;;;;5052094;28;20669;-56
2022/08/15 08:11:12;;;;;;;10.50;9.30;;;27.10;58.50;;;;;;5052651;28;20463;-57
2022/08/15 08:13:50;;;;;;;14.13;8.70;;;27.30;57.80;;;;;;5053171;28;20486;-56
2022/08/15 08:16:24;;;;;;;10.00;9.00;;;27.60;57.40;;;;;;5053106;28;20440;-57
2022/08/15 08:18:59;;;;;;;9.80;8.90;;;27.60;57.00;;;;;;5052464;28;20489;-57
2022/08/15 08:21:32;;;;;;;10.10;9.13;;;27.60;56.90;;;;;;5052392;28;20433;-57
2022/08/15 08:24:09;;;;;;;10.63;9.63;;;27.70;56.70;;;;;;5052374;28;20515;-57
2022/08/15 08:26:42;;;;;;;12.83;9.73;;;27.70;56.50;;;;;;5052740;28;20839;-56
2022/08/15 08:29:19;;;;;;;14.50;9.00;;;27.70;56.50;;;;;;5052567;28;20484;-58
2022/08/15 08:31:57;;;;;;;11.73;9.53;;;27.60;56.60;;;;;;5052607;28;20428;-57
2022/08/15 08:34:31;;;;;;;10.33;9.30;;;27.50;57.00;;;;;;5052514;28;20532;-57
2022/08/15 08:37:03;;;;;;;10.20;9.20;;;27.60;56.50;;;;;;5052635;28;20521;-57
2022/08/15 08:42:13;;;;;;;12.00;8.53;;;27.90;55.80;;;;;;5051611;28;20464;-55
2022/08/15 08:44:46;;;;;;;12.67;9.80;;;28.20;55.10;;;;;;5053354;28;20474;-55
2022/08/15 08:47:26;;;;;;;11.10;10.10;;;28.40;54.40;;;;;;5052404;28;20456;-55
2022/08/15 08:50:08;;;;;;;9.80;8.83;;;28.70;53.70;;;;;;5052476;28;20569;-55
2022/08/15 08:52:41;;;;;;;9.70;8.80;;;29.00;53.10;;;;;;5052554;28;20482;-56
2022/08/15 08:55:16;;;;;;;10.97;8.87;;;29.20;52.30;;;;;;5053572;28;20435;-56
2022/08/15 08:57:50;;;;;;;11.90;9.47;;;29.30;52.10;;;;;;5056253;28;20998;-56
2022/08/15 09:00:20;;;;;;;11.30;9.43;;;29.30;52.00;;;;;;5055919;28;20485;-55
2022/08/15 09:02:51;;;;;;;11.27;9.77;;;29.40;51.90;;;;;;5056170;28;20529;-56
2022/08/15 09:05:29;;;;;;;11.07;9.43;;;29.40;51.50;;;;;;5056045;28;20522;-58
2022/08/15 09:08:01;;;;;;;9.10;7.67;;;29.40;51.50;;;;;;5056079;28;20470;-56
2022/08/15 09:10:34;;;;;;;9.33;8.53;;;29.40;51.30;;;;;;5055823;28;20517;-57
2022/08/15 09:15:53;;;;;;;11.50;10.40;;;29.90;50.50;;;;;;5056215;28;20414;-56
2022/08/15 09:18:27;;;;;;;15.53;14.03;;;30.00;50.00;;;;;;5056248;28;20464;-55
2022/08/15 09:20:56;;;;;;;11.23;10.33;;;30.10;49.80;;;;;;5056258;28;20810;-55
2022/08/15 09:23:25;;;;;;;10.30;9.13;;;30.20;49.60;;;;;;5055925;28;20952;-55
2022/08/15 09:26:00;;;;;;;9.40;8.70;;;30.40;49.40;;;;;;5055958;28;20500;-56
2022/08/15 09:28:33;;;;;;;10.63;9.73;;;30.60;49.10;;;;;;5055844;28;20444;-56
2022/08/15 09:31:07;;;;;;;9.13;8.33;;;30.70;48.90;;;;;;5055863;28;20565;-56
2022/08/15 09:34:06;;;;;;;11.30;9.30;;;30.80;48.70;;;;;;5056354;28;20431;-54
2022/08/15 09:37:05;;;;;;;9.53;7.87;;;30.90;48.60;;;;;;5055803;28;20439;-56
2022/08/15 09:39:55;;;;;;;8.60;7.90;;;31.00;48.20;;;;;;5041060;28;20864;-55
2022/08/15 09:42:42;;;;;;;9.27;8.37;;;31.30;47.80;;;;;;5055590;28;20471;-57
2022/08/15 09:45:32;;;;;;;10.20;9.30;;;31.30;47.40;;;;;;5055230;28;20432;-57
2022/08/15 09:48:18;;;;;;;12.13;8.40;;;31.50;47.00;;;;;;5055460;28;20432;-55
2022/08/15 09:51:13;;;;;;;8.40;7.80;;;31.70;46.50;;;;;;5054939;28;20494;-56
2022/08/15 09:53:55;;;;;;;9.90;8.20;;;32.00;45.80;;;;;;5055105;28;20911;-54
2022/08/15 09:56:25;;;;;;;9.60;8.80;;;32.30;45.20;;;;;;5055336;28;20896;-55
2022/08/15 09:58:56;;;;;;;12.60;9.07;;;32.50;44.80;;;;;;5054118;28;20475;-56
2022/08/15 10:01:30;;;;;;;11.20;8.80;;;32.50;44.40;;;;;;5055133;28;20562;-56
2022/08/15 10:04:01;;;;;;;10.20;9.07;;;32.50;44.30;;;;;;5055503;28;20436;-56
2022/08/15 10:06:31;;;;;;;9.60;8.60;;;32.30;44.20;;;;;;5055329;28;20483;-56
2022/08/15 10:09:15;;;;;;;8.77;7.77;;;32.30;44.20;;;;;;5054235;28;20551;-55
2022/08/15 10:12:21;;;;;;;12.47;8.10;;;32.30;44.00;;;;;;5055305;28;20573;-54
2022/08/15 10:15:05;;;;;;;10.33;8.80;;;32.40;43.70;;;;;;5055044;28;20440;-54
2022/08/15 10:17:44;;;;;;;9.03;8.13;;;32.50;43.40;;;;;;5054444;28;20436;-59
2022/08/15 10:20:51;;;;;;;11.57;8.80;;;32.60;43.50;;;;;;5054844;28;20835;-56
2022/08/15 10:23:24;;;;;;;8.93;6.93;;;32.70;43.30;;;;;;5054167;28;20463;-57
2022/08/15 10:26:10;;;;;;;11.13;9.33;;;32.90;42.80;;;;;;5055669;28;20450;-58
2022/08/15 10:28:40;;;;;;;8.57;7.77;;;33.10;42.40;;;;;;5054854;28;20797;-55
2022/08/15 10:31:27;;;;;;;9.70;8.13;;;33.20;42.00;;;;;;5054293;28;20487;-56
2022/08/15 10:33:59;;;;;;;9.37;8.53;;;33.10;42.30;;;;;;5055070;28;20432;-56
2022/08/15 10:36:34;;;;;;;9.57;8.63;;;33.10;42.40;;;;;;5053945;28;20547;-57
2022/08/15 10:39:21;;;;;;;11.23;7.90;;;33.30;42.00;;;;;;5051737;28;20542;-56
2022/08/15 10:42:03;;;;;;;9.07;8.17;;;33.40;42.10;;;;;;5052799;28;20479;-57
2022/08/15 10:44:47;;;;;;;9.00;8.10;;;33.60;41.80;;;;;;5043762;28;20429;-58
2022/08/15 10:47:26;;;;;;;13.97;8.23;;;34.00;41.00;;;;;;5051907;28;20972;-55
2022/08/15 10:50:14;;;;;;;9.13;8.03;;;34.40;40.30;;;;;;5045785;28;20482;-56
2022/08/15 10:52:54;;;;;;;8.47;7.77;;;34.90;39.40;;;;;;5053312;28;20448;-56
2022/08/15 10:55:26;;;;;;;8.00;7.33;;;35.30;38.70;;;;;;5053829;28;20434;-56
2022/08/15 10:57:56;;;;;;;7.97;7.37;;;35.40;38.30;;;;;;5048830;28;20571;-58
2022/08/15 11:00:56;;;;;;;8.70;8.00;;;35.60;37.90;;;;;;5048729;28;20465;-57
2022/08/15 11:03:29;;;;;;;8.13;7.43;;;35.70;37.40;;;;;;4971704;28;20841;-56
2022/08/15 11:06:01;;;;;;;8.33;7.63;;;35.60;37.10;;;;;;5033893;28;20476;-58
2022/08/15 11:08:29;;;;;;;8.50;7.57;;;35.30;37.40;;;;;;5048371;28;20460;-56
2022/08/15 11:11:05;;;;;;;9.33;8.10;;;35.20;37.60;;;;;;5048161;28;20571;-57
2022/08/15 11:13:33;;;;;;;10.07;7.93;;;35.10;37.50;;;;;;5040403;28;20467;-58
2022/08/15 11:16:10;;;;;;;7.97;7.17;;;35.20;37.20;;;;;;5034731;28;20480;-59
2022/08/15 11:18:44;;;;;;;7.90;7.20;;;35.20;36.70;;;;;;5053726;28;20428;-58
2022/08/15 11:21:29;;;;;;;7.83;7.23;;;35.10;36.70;;;;;;5053421;28;20490;-59
2022/08/15 11:23:59;;;;;;;7.20;6.57;;;35.10;36.90;;;;;;5053517;28;20435;-59
2022/08/15 11:26:29;;;;;;;7.10;6.20;;;35.10;36.70;;;;;;5048196;28;20528;-59
2022/08/15 11:29:07;;;;;;;8.33;6.77;;;35.20;36.20;;;;;;5048683;28;20913;-59
2022/08/15 11:31:45;;;;;;;8.57;7.70;;;35.10;35.60;;;;;;5049671;28;20488;-59
2022/08/15 11:34:24;;;;;;;8.00;7.30;;;34.90;35.40;;;;;;5051786;28;20550;-58
2022/08/15 11:36:56;;;;;;;8.30;7.13;;;34.80;35.30;;;;;;5052744;28;20467;-59
2022/08/15 11:39:26;;;;;;;8.83;8.13;;;34.80;35.40;;;;;;5051836;28;20487;-60
2022/08/15 11:41:56;;;;;;;9.70;8.43;;;34.80;35.30;;;;;;5051918;28;20551;-59
2022/08/15 11:44:27;;;;;;;9.93;7.30;;;34.80;35.40;;;;;;5053351;28;20835;-57
2022/08/15 11:46:55;;;;;;;10.67;7.53;;;34.50;35.50;;;;;;5052650;28;20506;-59
2022/08/15 11:49:34;;;;;;;8.97;6.90;;;34.30;35.60;;;;;;5053301;28;20466;-59
2022/08/15 11:52:09;;;;;;;10.10;7.13;;;34.10;35.90;;;;;;5051871;28;20556;-58
2022/08/15 11:54:37;;;;;;;7.50;6.93;;;34.20;36.10;;;;;;5051526;28;20542;-59
2022/08/15 11:57:06;;;;;;;8.20;7.40;;;34.10;36.20;;;;;;5052245;28;20498;-60
2022/08/15 11:59:36;;;;;;;8.53;7.70;;;33.90;36.60;;;;;;5051760;28;20854;-59
2022/08/15 12:02:07;;;;;;;8.73;7.83;;;33.80;37.00;;;;;;5052097;28;20456;-57
2022/08/15 12:04:38;;;;;;;11.97;8.40;;;33.70;37.30;;;;;;5052623;28;20456;-60
2022/08/15 12:07:21;;;;;;;9.17;8.37;;;33.60;37.70;;;;;;5051721;28;20459;-58
2022/08/15 12:09:55;;;;;;;8.07;7.37;;;33.50;38.10;;;;;;5051865;28;20475;-58
2022/08/15 12:12:32;;;;;;;9.40;8.70;;;33.30;38.60;;;;;;5051417;28;20475;-58
2022/08/15 12:15:07;;;;;;;9.53;8.63;;;33.20;38.90;;;;;;5051856;28;20467;-58
2022/08/15 12:17:35;;;;;;;10.43;9.43;;;33.10;39.10;;;;;;5051057;28;20530;-57
2022/08/15 12:20:04;;;;;;;13.77;11.13;;;32.90;39.80;;;;;;5052529;28;20506;-58
2022/08/15 12:22:36;;;;;;;17.67;10.40;;;32.40;41.90;;;;;;5050497;28;20463;-57
2022/08/15 12:25:06;;;;;;;10.00;9.20;;;31.80;45.40;;;;;;5052398;28;20498;-60
2022/08/15 12:27:35;;;;;;;10.87;9.87;;;31.30;47.70;;;;;;5051739;28;21005;-57
2022/08/15 12:30:04;;;;;;;11.57;10.47;;;31.00;48.80;;;;;;5052017;28;20493;-58
2022/08/15 12:32:32;;;;;;;10.27;9.40;;;30.80;49.30;;;;;;5050529;28;20531;-58
2022/08/15 12:35:00;;;;;;;10.67;9.73;;;30.90;50.00;;;;;;5056426;28;20534;-54
2022/08/15 12:37:28;;;;;;;10.90;9.90;;;31.10;49.50;;;;;;5055978;28;20489;-56
2022/08/15 12:39:59;;;;;;;10.50;9.40;;;31.30;48.50;;;;;;5045019;28;20527;-60
2022/08/15 12:42:29;;;;;;;11.80;10.43;;;31.40;47.60;;;;;;5054361;28;20530;-58
2022/08/15 12:44:58;;;;;;;7.87;7.30;;;31.70;46.90;;;;;;5045488;28;20459;-59
2022/08/15 12:47:31;;;;;;;10.37;7.37;;;31.80;45.70;;;;;;5036355;28;20542;-59
2022/08/15 12:49:59;;;;;;;8.90;8.20;;;31.80;44.10;;;;;;5036188;28;20558;-57
2022/08/15 12:52:27;;;;;;;7.67;6.97;;;31.80;43.10;;;;;;5055260;28;21037;-57
2022/08/15 12:54:54;;;;;;;8.03;7.30;;;31.90;42.40;;;;;;5055189;28;20490;-56
2022/08/15 12:57:23;;;;;;;8.00;7.40;;;32.10;41.90;;;;;;5046604;28;20546;-59
2022/08/15 12:59:50;;;;;;;7.33;6.63;;;32.20;41.60;;;;;;5055709;28;20471;-57
2022/08/15 13:02:17;;;;;;;6.90;6.20;;;32.50;41.00;;;;;;5049457;28;20511;-58
2022/08/15 13:04:49;;;;;;;7.17;6.47;;;32.50;40.10;;;;;;5051359;28;20488;-57
2022/08/15 13:07:21;;;;;;;6.83;6.27;;;32.50;40.10;;;;;;5054220;28;20988;-60
2022/08/15 13:09:49;;;;;;;7.30;6.60;;;32.50;40.20;;;;;;5055782;28;20475;-59
2022/08/15 13:12:17;;;;;;;11.17;6.53;;;32.60;40.00;;;;;;5054868;28;20479;-59